Time;durP1;ratioP1;P1;durP2;ratioP2;P2;SDS_P1;SDS_P2;PMS_P1;PMS_P2;Temp;Humidity;BMP_temperature;BMP_pressure;BME280_temperature;BME280_humidity;BME280_pressure;Samples;Min_cycle;Max_cycle;Signal;HPM_P1;HPM_P2
2022/06/11 00:01:06;;;;;;;8.65;4.95;;;;;;;;;;5027781;28;20515;-88
2022/06/11 00:03:33;;;;;;;7.78;4.95;;;;;;;;;;5034887;28;20088;-84
2022/06/11 00:06:29;;;;;;;7.32;5.63;;;;;;;;;;5034567;28;20049;-88
2022/06/11 00:09:02;;;;;;;7.88;5.28;;;;;;;;;;5038442;28;20045;-88
2022/06/11 00:11:29;;;;;;;10.30;5.57;;;;;;;;;;5035878;28;20132;-88
2022/06/11 00:14:24;;;;;;;7.35;5.18;;;;;;;;;;5039407;28;20049;-89
2022/06/11 00:16:53;;;;;;;9.00;5.88;;;;;;;;;;5038759;28;20130;-88
2022/06/11 00:19:27;;;;;;;11.70;5.90;;;;;;;;;;5039012;28;20041;-88
2022/06/11 00:21:56;;;;;;;10.52;5.45;;;;;;;;;;5034942;28;20049;-89
2022/06/11 00:24:25;;;;;;;9.98;6.13;;;;;;;;;;5041233;28;20479;-89
2022/06/11 00:26:58;;;;;;;9.05;5.97;;;;;;;;;;5039896;28;20076;-86
2022/06/11 00:29:29;;;;;;;11.95;5.70;;;;;;;;;;5037368;28;20050;-87
2022/06/11 00:32:06;;;;;;;8.57;5.55;;;;;;;;;;5037291;28;20044;-86
2022/06/11 00:34:33;;;;;;;10.48;6.10;;;;;;;;;;5018396;28;20041;-87
2022/06/11 00:37:03;;;;;;;8.98;6.13;;;;;;;;;;5036092;28;20063;-87
2022/06/11 00:39:38;;;;;;;8.43;5.47;;;;;;;;;;5039836;28;20052;-87
2022/06/11 00:42:26;;;;;;;10.77;5.95;;;;;;;;;;5039386;28;20037;-87
2022/06/11 00:45:42;;;;;;;10.95;5.75;;;;;;;;;;5051670;28;20026;-94
2022/06/11 00:48:39;;;;;;;6.97;5.25;;;;;;;;;;4980207;28;20054;-94
2022/06/11 00:51:31;;;;;;;10.23;5.32;;;;;;;;;;4983227;28;20038;-94
2022/06/11 00:54:04;;;;;;;8.23;5.25;;;;;;;;;;4967028;28;20061;-94
2022/06/11 00:56:52;;;;;;;9.07;5.65;;;;;;;;;;4983490;28;20074;-95
2022/06/11 01:01:03;;;;;;;10.60;5.63;;;;;;;;;;4993893;28;20146;-94
2022/06/11 01:04:40;;;;;;;9.07;5.63;;;;;;;;;;4977418;28;20101;-94
2022/06/11 01:13:17;;;;;;;9.82;6.22;;;;;;;;;;4884933;29;20087;-94
2022/06/11 01:15:55;;;;;;;8.30;6.00;;;;;;;;;;4869910;29;20053;-95
2022/06/11 01:18:52;;;;;;;9.43;5.90;;;;;;;;;;4862295;29;20049;-94
2022/06/11 01:21:46;;;;;;;9.88;5.68;;;;;;;;;;4857734;29;20053;-94
2022/06/11 01:24:33;;;;;;;10.38;6.03;;;;;;;;;;4856411;29;20066;-87
2022/06/11 01:27:44;;;;;;;11.07;5.22;;;;;;;;;;4883334;29;20088;-87
2022/06/11 01:30:29;;;;;;;6.93;5.07;;;;;;;;;;4881327;29;20228;-87
2022/06/11 01:33:17;;;;;;;9.50;5.82;;;;;;;;;;4884679;29;20060;-94
2022/06/11 01:36:06;;;;;;;7.90;5.03;;;;;;;;;;4866105;29;20108;-93
2022/06/11 01:38:41;;;;;;;8.95;5.22;;;;;;;;;;4882807;29;20066;-92
2022/06/11 01:41:27;;;;;;;9.32;5.53;;;;;;;;;;4910312;28;20075;-93
2022/06/11 01:44:00;;;;;;;7.90;4.90;;;;;;;;;;4960964;28;20043;-94
2022/06/11 01:46:47;;;;;;;9.45;5.70;;;;;;;;;;4966389;28;20066;-94
2022/06/11 01:49:21;;;;;;;8.02;5.68;;;;;;;;;;4977461;28;20053;-87
2022/06/11 01:52:28;;;;;;;8.88;5.50;;;;;;;;;;4996532;28;20180;-87
2022/06/11 01:55:07;;;;;;;8.20;5.85;;;;;;;;;;4997535;28;20668;-94
2022/06/11 01:57:38;;;;;;;11.98;5.13;;;;;;;;;;4981725;28;20078;-93
2022/06/11 02:00:20;;;;;;;8.60;5.75;;;;;;;;;;5010857;28;20055;-93
2022/06/11 02:03:02;;;;;;;10.57;5.90;;;;;;;;;;5011208;28;21185;-94
2022/06/11 02:06:07;;;;;;;7.38;5.20;;;;;;;;;;4997788;28;20041;-94
2022/06/11 02:09:24;;;;;;;10.13;5.78;;;;;;;;;;5018956;28;20083;-95
2022/06/11 02:12:41;;;;;;;7.53;4.97;;;;;;;;;;5031910;28;20064;-94
2022/06/11 02:15:09;;;;;;;10.27;5.93;;;;;;;;;;5021986;28;20047;-94
2022/06/11 02:17:46;;;;;;;8.82;5.00;;;;;;;;;;5036531;28;20045;-94
2022/06/11 02:20:39;;;;;;;8.38;5.32;;;;;;;;;;5063305;28;20047;-96
2022/06/11 02:23:17;;;;;;;9.23;5.97;;;;;;;;;;5056858;28;20042;-94
2022/06/11 02:25:50;;;;;;;10.65;4.82;;;;;;;;;;5021256;28;20037;-94
2022/06/11 02:28:28;;;;;;;8.20;5.25;;;;;;;;;;5037042;28;20148;-94
2022/06/11 02:31:27;;;;;;;7.93;5.88;;;;;;;;;;5033551;28;20051;-94
2022/06/11 02:33:56;;;;;;;9.18;5.32;;;;;;;;;;5034683;28;20045;-91
2022/06/11 02:36:28;;;;;;;8.70;4.95;;;;;;;;;;5043103;28;20065;-91
2022/06/11 02:39:06;;;;;;;7.15;5.22;;;;;;;;;;5027003;28;20527;-91
2022/06/11 02:42:05;;;;;;;7.03;5.03;;;;;;;;;;5045980;28;20065;-91
2022/06/11 02:44:36;;;;;;;9.10;5.22;;;;;;;;;;5047316;28;20045;-90
2022/06/11 02:47:05;;;;;;;8.95;5.60;;;;;;;;;;5043739;28;20041;-89
2022/06/11 02:49:36;;;;;;;7.88;4.70;;;;;;;;;;5044122;28;20049;-90
2022/06/11 02:52:09;;;;;;;9.00;5.30;;;;;;;;;;5042658;28;20037;-91
2022/06/11 02:55:02;;;;;;;6.05;4.55;;;;;;;;;;5043088;28;20049;-90
2022/06/11 02:57:30;;;;;;;11.60;5.68;;;;;;;;;;5027249;28;20043;-90
2022/06/11 02:59:57;;;;;;;7.80;5.03;;;;;;;;;;5042062;28;20405;-90
2022/06/11 03:02:31;;;;;;;6.93;4.90;;;;;;;;;;5042949;28;20046;-90
2022/06/11 03:04:59;;;;;;;10.70;5.22;;;;;;;;;;5040644;28;20039;-89
2022/06/11 03:07:27;;;;;;;7.95;5.05;;;;;;;;;;5044022;28;20039;-90
2022/06/11 03:09:55;;;;;;;8.45;4.85;;;;;;;;;;5042742;28;20041;-90
2022/06/11 03:12:23;;;;;;;6.82;4.90;;;;;;;;;;5042723;28;20430;-90
2022/06/11 03:15:16;;;;;;;7.93;4.88;;;;;;;;;;5038283;28;20093;-90
2022/06/11 03:17:51;;;;;;;9.10;4.88;;;;;;;;;;5042680;28;20045;-89
2022/06/11 03:20:21;;;;;;;8.75;4.45;;;;;;;;;;5040919;28;20065;-90
2022/06/11 03:23:15;;;;;;;11.73;5.30;;;;;;;;;;5041199;28;20044;-90
2022/06/11 03:25:47;;;;;;;11.20;6.13;;;;;;;;;;5042209;28;20049;-89
2022/06/11 03:28:41;;;;;;;11.25;5.32;;;;;;;;;;5038280;28;20049;-90
2022/06/11 03:31:15;;;;;;;12.52;5.57;;;;;;;;;;5039675;28;20092;-90
2022/06/11 03:33:47;;;;;;;7.82;5.00;;;;;;;;;;5041440;28;20399;-90
2022/06/11 03:36:17;;;;;;;7.65;5.10;;;;;;;;;;5040804;28;20025;-90
2022/06/11 03:39:11;;;;;;;7.18;5.05;;;;;;;;;;5042788;28;20040;-87
2022/06/11 03:41:40;;;;;;;9.48;4.95;;;;;;;;;;5005834;28;20091;-87
2022/06/11 03:44:13;;;;;;;10.27;4.75;;;;;;;;;;5040727;28;20057;-87
2022/06/11 03:46:41;;;;;;;9.60;4.75;;;;;;;;;;5036563;28;20123;-87
2022/06/11 03:49:33;;;;;;;9.27;4.63;;;;;;;;;;5038614;28;20044;-88
2022/06/11 03:52:06;;;;;;;8.35;4.70;;;;;;;;;;5037727;28;20059;-88
2022/06/11 03:54:35;;;;;;;9.68;5.47;;;;;;;;;;5039468;28;20038;-88
2022/06/11 03:57:04;;;;;;;10.23;5.57;;;;;;;;;;5022700;28;20046;-87
2022/06/11 03:59:31;;;;;;;8.73;5.25;;;;;;;;;;5038428;28;20703;-87
2022/06/11 04:02:00;;;;;;;10.80;5.15;;;;;;;;;;5036786;28;20104;-87
2022/06/11 04:04:27;;;;;;;7.32;5.40;;;;;;;;;;5005475;28;20077;-87
2022/06/11 04:07:05;;;;;;;8.30;4.55;;;;;;;;;;5038325;28;20047;-87
2022/06/11 04:10:00;;;;;;;8.80;4.82;;;;;;;;;;5036089;28;20041;-87
2022/06/11 04:12:27;;;;;;;9.63;4.65;;;;;;;;;;5040185;28;20503;-88
2022/06/11 04:15:20;;;;;;;10.93;5.63;;;;;;;;;;5041073;28;20046;-87
2022/06/11 04:17:53;;;;;;;7.30;4.90;;;;;;;;;;5041123;28;20083;-88
2022/06/11 04:20:21;;;;;;;6.57;5.00;;;;;;;;;;5042999;28;20045;-87
2022/06/11 04:22:49;;;;;;;7.47;4.80;;;;;;;;;;5041925;28;20076;-88
2022/06/11 04:28:29;;;;;;;8.00;4.93;;;;;;;;;;5048753;28;20045;-92
2022/06/11 04:31:05;;;;;;;7.28;5.03;;;;;;;;;;5047878;28;20049;-91
2022/06/11 04:33:33;;;;;;;6.72;4.95;;;;;;;;;;5048915;28;20040;-93
2022/06/11 04:36:02;;;;;;;9.15;4.97;;;;;;;;;;5049138;28;20041;-93
2022/06/11 04:38:38;;;;;;;5.72;4.68;;;;;;;;;;5027827;28;20042;-92
2022/06/11 04:41:31;;;;;;;5.93;4.60;;;;;;;;;;5025212;28;20408;-88
2022/06/11 04:44:04;;;;;;;10.88;5.13;;;;;;;;;;5022545;28;20060;-88
2022/06/11 04:46:32;;;;;;;11.07;5.82;;;;;;;;;;5033133;28;20049;-95
2022/06/11 04:49:05;;;;;;;7.72;5.53;;;;;;;;;;5023133;28;20061;-94
2022/06/11 04:51:33;;;;;;;10.00;5.22;;;;;;;;;;5038454;28;20146;-95
2022/06/11 04:54:05;;;;;;;8.85;5.07;;;;;;;;;;5022767;28;20064;-94
2022/06/11 04:56:40;;;;;;;7.93;5.20;;;;;;;;;;5019036;28;20029;-94
2022/06/11 04:59:09;;;;;;;11.55;5.82;;;;;;;;;;5040702;28;20498;-94
2022/06/11 05:02:03;;;;;;;8.80;5.00;;;;;;;;;;5025369;28;20115;-88
2022/06/11 05:04:31;;;;;;;8.60;4.97;;;;;;;;;;5040446;28;20045;-87
2022/06/11 05:06:59;;;;;;;9.77;5.68;;;;;;;;;;5039858;28;20041;-88
2022/06/11 05:09:28;;;;;;;7.95;4.90;;;;;;;;;;5038843;28;20444;-87
2022/06/11 05:12:02;;;;;;;8.65;5.05;;;;;;;;;;5038524;28;20501;-88
2022/06/11 05:14:29;;;;;;;7.03;5.00;;;;;;;;;;5039854;28;20223;-87
2022/06/11 05:17:21;;;;;;;8.40;4.80;;;;;;;;;;5039620;28;20039;-88
2022/06/11 05:19:49;;;;;;;9.25;5.30;;;;;;;;;;5039978;28;20079;-88
2022/06/11 05:22:17;;;;;;;5.45;4.85;;;;;;;;;;5040482;28;20044;-89
2022/06/11 05:24:45;;;;;;;11.68;5.07;;;;;;;;;;5036957;28;20052;-89
2022/06/11 05:27:20;;;;;;;8.43;5.13;;;;;;;;;;5039824;28;20407;-88
2022/06/11 05:30:22;;;;;;;8.30;5.05;;;;;;;;;;5040242;28;20040;-86
2022/06/11 05:32:50;;;;;;;8.05;5.75;;;;;;;;;;5039554;28;20119;-88
2022/06/11 05:35:24;;;;;;;10.70;5.47;;;;;;;;;;5041550;28;20053;-88
2022/06/11 05:37:54;;;;;;;9.95;5.60;;;;;;;;;;5038358;28;20034;-88
2022/06/11 05:40:25;;;;;;;9.15;5.05;;;;;;;;;;5038405;28;20041;-88
2022/06/11 05:43:18;;;;;;;8.75;4.82;;;;;;;;;;5038549;28;20041;-88
2022/06/11 05:46:15;;;;;;;9.27;5.70;;;;;;;;;;5037540;28;20039;-88
2022/06/11 05:48:51;;;;;;;9.60;5.50;;;;;;;;;;5037635;28;20116;-88
2022/06/11 05:51:49;;;;;;;10.18;5.63;;;;;;;;;;5038221;28;20045;-88
2022/06/11 05:54:20;;;;;;;9.95;5.38;;;;;;;;;;5036890;28;20056;-86
2022/06/11 05:56:54;;;;;;;10.68;6.07;;;;;;;;;;5033716;28;20041;-89
2022/06/11 05:59:26;;;;;;;9.90;5.95;;;;;;;;;;5034659;28;20502;-89
2022/06/11 06:01:54;;;;;;;11.95;6.75;;;;;;;;;;5035158;28;20080;-88
2022/06/11 06:04:21;;;;;;;11.57;5.50;;;;;;;;;;5035782;28;20041;-88
2022/06/11 06:06:49;;;;;;;12.73;6.43;;;;;;;;;;5035644;28;20491;-87
2022/06/11 06:09:41;;;;;;;11.18;5.82;;;;;;;;;;5032756;28;20033;-88
2022/06/11 06:12:09;;;;;;;11.43;6.40;;;;;;;;;;5031912;28;20517;-85
2022/06/11 06:14:37;;;;;;;10.65;5.45;;;;;;;;;;5031508;28;20049;-85
2022/06/11 06:17:09;;;;;;;10.80;6.25;;;;;;;;;;5031833;28;20076;-85
2022/06/11 06:19:59;;;;;;;10.13;5.97;;;;;;;;;;5034525;28;20048;-85
2022/06/11 06:22:31;;;;;;;14.23;6.28;;;;;;;;;;5017945;28;20088;-85
2022/06/11 06:24:59;;;;;;;14.88;6.68;;;;;;;;;;5032365;28;20113;-85
2022/06/11 06:27:27;;;;;;;9.63;5.07;;;;;;;;;;5032385;28;20044;-84
2022/06/11 06:29:55;;;;;;;12.32;5.97;;;;;;;;;;5032660;28;20128;-84
2022/06/11 06:32:23;;;;;;;13.13;6.28;;;;;;;;;;5031938;28;20045;-85
2022/06/11 06:34:55;;;;;;;9.70;5.25;;;;;;;;;;5032201;28;20037;-85
2022/06/11 06:37:23;;;;;;;9.18;4.90;;;;;;;;;;5031899;28;20041;-84
2022/06/11 06:39:51;;;;;;;9.77;6.03;;;;;;;;;;5029720;28;21688;-84
2022/06/11 06:42:19;;;;;;;9.00;4.55;;;;;;;;;;5033028;28;20049;-84
2022/06/11 06:44:47;;;;;;;10.43;4.55;;;;;;;;;;5030902;28;20160;-84
2022/06/11 06:47:15;;;;;;;12.35;5.15;;;;;;;;;;5031169;28;20604;-84
2022/06/11 06:49:43;;;;;;;15.18;6.72;;;;;;;;;;5033802;28;20071;-84
2022/06/11 06:52:11;;;;;;;10.63;5.53;;;;;;;;;;5034447;28;20045;-85
2022/06/11 06:54:39;;;;;;;13.05;6.07;;;;;;;;;;5031978;28;20045;-85
2022/06/11 06:57:12;;;;;;;9.45;5.28;;;;;;;;;;5033582;28;20564;-85
2022/06/11 06:59:42;;;;;;;9.80;5.95;;;;;;;;;;5032533;28;20593;-85
2022/06/11 07:02:18;;;;;;;12.65;6.20;;;;;;;;;;5031766;28;20037;-85
2022/06/11 07:04:51;;;;;;;7.53;4.70;;;;;;;;;;5032236;28;20154;-86
2022/06/11 07:07:19;;;;;;;11.55;5.60;;;;;;;;;;5033453;28;20076;-85
2022/06/11 07:09:53;;;;;;;8.75;5.00;;;;;;;;;;5031445;28;20050;-85
2022/06/11 07:12:26;;;;;;;12.35;5.07;;;;;;;;;;5031915;28;20049;-85
2022/06/11 07:14:53;;;;;;;12.20;4.70;;;;;;;;;;5030683;28;20928;-85
2022/06/11 07:17:22;;;;;;;7.88;5.00;;;;;;;;;;5030374;28;20092;-85
2022/06/11 07:20:00;;;;;;;10.93;5.50;;;;;;;;;;5032031;28;20063;-85
2022/06/11 07:22:38;;;;;;;12.07;5.90;;;;;;;;;;5030171;28;20053;-86
2022/06/11 07:25:31;;;;;;;9.65;5.13;;;;;;;;;;5030787;28;20106;-85
2022/06/11 07:28:12;;;;;;;11.88;6.85;;;;;;;;;;5015380;28;20133;-86
2022/06/11 07:30:45;;;;;;;11.15;5.22;;;;;;;;;;5029784;28;20045;-84
2022/06/11 07:33:17;;;;;;;13.73;6.53;;;;;;;;;;5029403;28;20976;-85
2022/06/11 07:35:48;;;;;;;9.82;5.70;;;;;;;;;;5031828;28;20068;-85
2022/06/11 07:38:39;;;;;;;8.10;5.18;;;;;;;;;;5013174;28;20068;-85
2022/06/11 07:41:31;;;;;;;9.57;4.40;;;;;;;;;;5030999;28;20075;-84
2022/06/11 07:43:59;;;;;;;12.35;5.22;;;;;;;;;;5031012;28;20227;-84
2022/06/11 07:46:27;;;;;;;8.55;4.28;;;;;;;;;;5029959;28;20049;-85
2022/06/11 07:48:55;;;;;;;10.05;4.35;;;;;;;;;;5030571;28;20462;-83
2022/06/11 07:51:23;;;;;;;12.40;4.50;;;;;;;;;;5029442;28;20142;-83
2022/06/11 07:54:15;;;;;;;7.18;3.92;;;;;;;;;;5030503;28;20423;-83
2022/06/11 07:56:47;;;;;;;9.13;3.83;;;;;;;;;;5031318;28;20167;-83
2022/06/11 07:59:15;;;;;;;7.97;3.80;;;;;;;;;;5030903;28;20111;-83
2022/06/11 08:02:09;;;;;;;12.73;3.97;;;;;;;;;;5013968;28;20041;-83
2022/06/11 08:04:41;;;;;;;10.27;4.72;;;;;;;;;;5030702;28;20037;-83
2022/06/11 08:07:09;;;;;;;8.23;3.53;;;;;;;;;;5029878;28;20068;-83
2022/06/11 08:09:37;;;;;;;8.05;4.60;;;;;;;;;;5031023;28;20103;-83
2022/06/11 08:12:05;;;;;;;9.98;3.97;;;;;;;;;;5028608;28;20041;-83
2022/06/11 08:14:37;;;;;;;8.80;3.78;;;;;;;;;;5029185;28;20073;-83
2022/06/11 08:19:57;;;;;;;12.70;5.07;;;;;;;;;;5029994;28;20053;-83
2022/06/11 08:22:25;;;;;;;10.27;4.90;;;;;;;;;;5029643;28;20136;-83
2022/06/11 08:24:53;;;;;;;9.75;4.28;;;;;;;;;;5030958;28;21235;-83
2022/06/11 08:27:21;;;;;;;13.23;5.82;;;;;;;;;;5030359;28;20045;-83
2022/06/11 08:30:18;;;;;;;8.82;4.80;;;;;;;;;;5029703;28;20530;-83
2022/06/11 08:32:46;;;;;;;6.97;4.63;;;;;;;;;;5029597;28;20053;-83
2022/06/11 08:35:14;;;;;;;7.60;4.70;;;;;;;;;;5030063;28;20055;-83
2022/06/11 08:37:41;;;;;;;7.65;4.95;;;;;;;;;;4995623;28;20466;-83
2022/06/11 08:40:22;;;;;;;11.05;4.93;;;;;;;;;;5029832;28;20057;-83
2022/06/11 08:43:27;;;;;;;9.10;4.72;;;;;;;;;;5030568;28;20052;-83
2022/06/11 08:46:02;;;;;;;13.05;4.90;;;;;;;;;;5026989;28;20033;-84
2022/06/11 08:49:19;;;;;;;9.00;5.35;;;;;;;;;;5031432;28;20041;-83
2022/06/11 08:51:55;;;;;;;13.13;4.70;;;;;;;;;;5027355;28;20060;-84
2022/06/11 08:54:26;;;;;;;10.32;4.82;;;;;;;;;;5029408;28;20063;-83
2022/06/11 08:57:02;;;;;;;9.95;4.60;;;;;;;;;;5030745;28;20049;-84
2022/06/11 09:00:00;;;;;;;10.32;4.35;;;;;;;;;;5032568;28;20049;-85
2022/06/11 09:02:54;;;;;;;7.20;3.60;;;;;;;;;;5034942;28;20056;-84
2022/06/11 09:05:58;;;;;;;5.72;3.08;;;;;;;;;;5016419;28;20123;-84
2022/06/11 09:08:33;;;;;;;8.63;3.50;;;;;;;;;;5034703;28;20049;-85
2022/06/11 09:11:25;;;;;;;6.40;2.90;;;;;;;;;;5035430;28;20071;-85
2022/06/11 09:14:13;;;;;;;5.65;2.58;;;;;;;;;;5035216;28;20049;-84
2022/06/11 09:17:16;;;;;;;6.28;2.40;;;;;;;;;;5033366;28;20041;-84
2022/06/11 09:20:04;;;;;;;6.80;3.38;;;;;;;;;;5035722;28;20047;-84
2022/06/11 09:23:02;;;;;;;4.70;2.40;;;;;;;;;;5035330;28;20040;-85
2022/06/11 09:26:01;;;;;;;4.43;2.03;;;;;;;;;;5036531;28;20033;-85
2022/06/11 09:29:11;;;;;;;4.57;2.75;;;;;;;;;;5019108;28;20580;-86
2022/06/11 09:31:54;;;;;;;4.05;2.40;;;;;;;;;;4912323;29;20187;-84
2022/06/11 09:34:33;;;;;;;6.10;2.45;;;;;;;;;;4912968;29;20059;-85
2022/06/11 09:37:18;;;;;;;4.82;2.60;;;;;;;;;;4917768;29;20051;-85
2022/06/11 09:40:38;;;;;;;3.92;2.55;;;;;;;;;;4916588;29;20363;-84
2022/06/11 09:43:28;;;;;;;7.93;3.10;;;;;;;;;;4902566;29;20126;-84
2022/06/11 09:46:12;;;;;;;4.70;3.00;;;;;;;;;;4907667;29;20202;-84
2022/06/11 09:49:37;;;;;;;5.43;3.05;;;;;;;;;;4906875;29;20775;-85
2022/06/11 09:52:38;;;;;;;7.05;3.88;;;;;;;;;;4907280;29;20052;-85
2022/06/11 09:55:42;;;;;;;4.70;3.13;;;;;;;;;;4906902;29;20066;-85
2022/06/11 09:58:44;;;;;;;4.07;2.50;;;;;;;;;;4906325;29;20055;-85
2022/06/11 10:01:21;;;;;;;6.22;2.38;;;;;;;;;;4899017;29;20056;-84
2022/06/11 10:03:58;;;;;;;8.50;2.70;;;;;;;;;;4907812;29;20095;-84
2022/06/11 10:06:39;;;;;;;4.35;2.30;;;;;;;;;;4906484;29;20091;-84
2022/06/11 10:09:35;;;;;;;5.30;2.17;;;;;;;;;;4987427;28;20062;-85
2022/06/11 10:12:31;;;;;;;6.45;2.20;;;;;;;;;;4991012;28;20050;-86
2022/06/11 10:15:14;;;;;;;8.43;2.13;;;;;;;;;;4978452;28;20042;-86
2022/06/11 10:18:06;;;;;;;6.35;1.70;;;;;;;;;;4991424;28;20089;-86
2022/06/11 10:20:40;;;;;;;7.25;1.90;;;;;;;;;;4993394;28;20054;-84
2022/06/11 10:23:25;;;;;;;4.70;1.70;;;;;;;;;;5014558;28;20075;-86
2022/06/11 10:26:00;;;;;;;5.53;2.00;;;;;;;;;;5040836;28;20304;-85
2022/06/11 10:28:39;;;;;;;4.07;1.52;;;;;;;;;;5039919;28;20324;-85
2022/06/11 10:31:17;;;;;;;4.07;1.70;;;;;;;;;;5036636;28;20397;-85
2022/06/11 10:34:24;;;;;;;4.55;1.48;;;;;;;;;;5036725;28;20136;-85
2022/06/11 10:37:21;;;;;;;3.72;1.58;;;;;;;;;;5033253;28;20495;-85
2022/06/11 10:40:13;;;;;;;5.15;1.73;;;;;;;;;;5039986;28;20069;-86
2022/06/11 10:42:52;;;;;;;6.47;1.73;;;;;;;;;;5046527;28;20107;-85
2022/06/11 10:45:19;;;;;;;5.07;1.85;;;;;;;;;;5044310;28;20041;-86
2022/06/11 10:47:51;;;;;;;5.38;1.70;;;;;;;;;;5044830;28;20049;-86
2022/06/11 10:50:33;;;;;;;3.42;1.45;;;;;;;;;;5045626;28;20095;-86
2022/06/11 10:53:15;;;;;;;4.10;1.70;;;;;;;;;;5045724;28;20057;-86
2022/06/11 10:55:49;;;;;;;4.18;1.67;;;;;;;;;;5048794;28;20514;-86
2022/06/11 10:58:39;;;;;;;4.90;1.50;;;;;;;;;;5049614;28;20059;-86
2022/06/11 11:01:32;;;;;;;4.95;1.40;;;;;;;;;;5046497;28;20052;-86
2022/06/11 11:04:23;;;;;;;5.57;1.50;;;;;;;;;;5046223;28;20127;-86
2022/06/11 11:07:13;;;;;;;5.68;1.80;;;;;;;;;;5044043;28;20045;-86
2022/06/11 11:09:42;;;;;;;5.53;1.73;;;;;;;;;;5046550;28;20045;-86
2022/06/11 11:12:24;;;;;;;9.20;2.08;;;;;;;;;;5048111;28;20045;-86
2022/06/11 11:15:10;;;;;;;4.72;1.63;;;;;;;;;;5051888;28;20041;-86
2022/06/11 11:17:48;;;;;;;4.97;1.80;;;;;;;;;;5053985;28;20068;-86
2022/06/11 11:20:30;;;;;;;6.35;1.67;;;;;;;;;;5053824;28;20076;-86
2022/06/11 11:23:29;;;;;;;7.60;1.75;;;;;;;;;;5048322;28;20048;-86
2022/06/11 11:26:41;;;;;;;6.80;2.05;;;;;;;;;;5047012;28;20518;-86
2022/06/11 11:29:20;;;;;;;4.40;1.63;;;;;;;;;;5048002;28;20041;-86
2022/06/11 11:31:58;;;;;;;9.82;2.05;;;;;;;;;;5049428;28;20072;-86
2022/06/11 11:35:21;;;;;;;6.13;2.22;;;;;;;;;;5050478;28;20053;-85
2022/06/11 11:38:02;;;;;;;7.30;2.17;;;;;;;;;;5049114;28;20052;-85
2022/06/11 11:40:33;;;;;;;10.88;2.13;;;;;;;;;;5049371;28;20045;-85
2022/06/11 11:43:05;;;;;;;8.90;2.75;;;;;;;;;;5049351;28;20052;-85
2022/06/11 11:45:47;;;;;;;7.18;1.77;;;;;;;;;;5049885;28;20063;-86
2022/06/11 11:48:25;;;;;;;8.32;2.25;;;;;;;;;;5050281;28;20041;-85
2022/06/11 11:50:58;;;;;;;8.30;1.83;;;;;;;;;;5047449;28;20045;-86
2022/06/11 11:53:29;;;;;;;8.20;2.20;;;;;;;;;;5045889;28;20132;-86
2022/06/11 11:56:27;;;;;;;9.52;2.78;;;;;;;;;;5047844;28;20589;-85
2022/06/11 11:59:14;;;;;;;9.45;1.85;;;;;;;;;;5046927;28;20049;-85
2022/06/11 12:01:50;;;;;;;11.13;2.25;;;;;;;;;;5047609;28;20062;-85
2022/06/11 12:04:51;;;;;;;30.48;2.72;;;;;;;;;;5049749;28;20056;-86
2022/06/11 12:07:28;;;;;;;7.10;1.88;;;;;;;;;;5047769;28;20037;-85
2022/06/11 12:10:10;;;;;;;8.93;2.35;;;;;;;;;;5049586;28;20053;-85
2022/06/11 12:12:40;;;;;;;6.25;1.92;;;;;;;;;;5052489;28;20079;-86
2022/06/11 12:15:23;;;;;;;7.78;1.85;;;;;;;;;;5049015;28;20038;-86
2022/06/11 12:17:53;;;;;;;10.15;2.10;;;;;;;;;;5048090;28;20049;-85
2022/06/11 12:20:31;;;;;;;8.77;2.30;;;;;;;;;;5043634;28;20118;-85
2022/06/11 12:23:42;;;;;;;9.13;2.15;;;;;;;;;;5032127;28;20124;-85
2022/06/11 12:26:40;;;;;;;11.25;2.35;;;;;;;;;;5043592;28;20045;-85
2022/06/11 12:29:50;;;;;;;7.35;1.85;;;;;;;;;;5021132;28;20528;-85
2022/06/11 12:32:26;;;;;;;6.28;2.30;;;;;;;;;;5044656;28;20113;-85
2022/06/11 12:35:42;;;;;;;9.45;2.10;;;;;;;;;;5048629;28;20049;-85
2022/06/11 12:38:18;;;;;;;10.60;2.30;;;;;;;;;;5044134;28;20053;-85
2022/06/11 12:41:28;;;;;;;5.20;1.80;;;;;;;;;;5050764;28;20414;-85
2022/06/11 12:44:24;;;;;;;7.45;2.15;;;;;;;;;;5040316;28;20499;-85
2022/06/11 12:47:30;;;;;;;8.55;2.35;;;;;;;;;;5049925;28;20037;-85
2022/06/11 12:53:49;;;;;;;9.38;2.10;;;;;;;;;;5049880;28;20037;-85
2022/06/11 12:56:51;;;;;;;9.27;2.25;;;;;;;;;;4971794;28;20500;-85
2022/06/11 12:59:40;;;;;;;10.27;2.20;;;;;;;;;;4974594;28;20043;-85
2022/06/11 13:02:33;;;;;;;7.00;1.90;;;;;;;;;;4970269;28;20122;-85
2022/06/11 13:05:50;;;;;;;9.60;1.95;;;;;;;;;;4932069;29;20086;-85
2022/06/11 13:08:42;;;;;;;8.45;2.72;;;;;;;;;;4921957;29;20056;-85
2022/06/11 13:11:19;;;;;;;10.40;2.45;;;;;;;;;;4923784;29;20068;-85
2022/06/11 13:14:46;;;;;;;12.27;3.55;;;;;;;;;;4934992;29;20056;-85
2022/06/11 13:17:26;;;;;;;11.55;2.72;;;;;;;;;;4921965;29;20098;-85
2022/06/11 13:20:54;;;;;;;12.63;2.38;;;;;;;;;;4921059;29;20059;-85
2022/06/11 13:23:42;;;;;;;8.77;2.22;;;;;;;;;;4918939;29;20048;-85
2022/06/11 13:30:05;;;;;;;9.80;2.38;;;;;;;;;;4922509;29;20255;-85
2022/06/11 13:32:36;;;;;;;8.93;2.58;;;;;;;;;;4924552;29;20055;-85
2022/06/11 13:35:34;;;;;;;8.77;2.60;;;;;;;;;;4942252;29;20083;-85
2022/06/11 13:38:25;;;;;;;11.10;2.22;;;;;;;;;;4941178;29;20078;-85
2022/06/11 13:41:28;;;;;;;10.02;1.98;;;;;;;;;;4942228;28;20052;-85
2022/06/11 13:44:39;;;;;;;13.15;3.00;;;;;;;;;;5030419;28;20160;-85
2022/06/11 13:47:41;;;;;;;9.57;2.25;;;;;;;;;;4968582;28;20062;-85
2022/06/11 13:50:57;;;;;;;8.90;2.40;;;;;;;;;;4967210;28;20079;-85
2022/06/11 13:57:17;;;;;;;12.13;2.67;;;;;;;;;;4970460;28;20055;-85
2022/06/11 14:00:19;;;;;;;13.68;2.40;;;;;;;;;;4966316;28;20127;-84
2022/06/11 14:02:51;;;;;;;;;;;;;;;;;;4953377;28;20147;-85
2022/06/11 14:05:29;;;;;;;12.63;2.42;;;;;;;;;;4956120;28;20012;-84
2022/06/11 14:07:58;;;;;;;10.90;2.07;;;;;;;;;;4955029;28;20538;-84
2022/06/11 14:10:47;;;;;;;11.52;2.45;;;;;;;;;;4955619;28;20322;-85
2022/06/11 14:13:58;;;;;;;10.05;2.03;;;;;;;;;;4944871;28;20043;-84
2022/06/11 14:16:31;;;;;;;9.93;2.33;;;;;;;;;;4953903;28;20519;-84
2022/06/11 14:19:21;;;;;;;10.07;2.50;;;;;;;;;;4955185;28;20095;-85
2022/06/11 14:22:01;;;;;;;9.10;2.45;;;;;;;;;;5023832;28;20310;-84
2022/06/11 14:24:41;;;;;;;10.30;2.45;;;;;;;;;;5033117;28;20038;-84
2022/06/11 14:27:36;;;;;;;13.30;2.22;;;;;;;;;;5033150;28;20512;-84
2022/06/11 14:30:11;;;;;;;10.10;2.00;;;;;;;;;;5032533;28;20052;-84
2022/06/11 14:32:58;;;;;;;9.93;2.20;;;;;;;;;;5033821;28;20049;-84
2022/06/11 14:35:50;;;;;;;7.93;2.10;;;;;;;;;;5018074;28;20310;-84
2022/06/11 14:38:20;;;;;;;14.75;2.67;;;;;;;;;;5033537;28;20056;-84
2022/06/11 14:41:17;;;;;;;9.52;2.55;;;;;;;;;;5032870;28;20045;-84
2022/06/11 14:43:51;;;;;;;10.32;2.92;;;;;;;;;;5033847;28;20041;-84
2022/06/11 14:46:38;;;;;;;14.17;3.27;;;;;;;;;;5033034;28;20100;-83
2022/06/11 14:49:22;;;;;;;11.55;2.40;;;;;;;;;;5032802;28;20304;-84
2022/06/11 14:52:08;;;;;;;7.50;2.17;;;;;;;;;;5031075;28;20045;-84
2022/06/11 14:54:44;;;;;;;10.82;2.50;;;;;;;;;;5033246;28;20137;-84
2022/06/11 14:57:49;;;;;;;12.68;3.05;;;;;;;;;;5033438;28;20037;-84
2022/06/11 15:00:42;;;;;;;12.63;2.13;;;;;;;;;;5032203;28;20053;-85
2022/06/11 15:03:31;;;;;;;7.13;2.20;;;;;;;;;;5015089;28;20510;-84
2022/06/11 15:06:14;;;;;;;11.18;2.85;;;;;;;;;;5033634;28;20041;-84
2022/06/11 15:09:21;;;;;;;10.73;2.90;;;;;;;;;;5033593;28;20454;-84
2022/06/11 15:12:08;;;;;;;;;;;;;;;;;;5034498;28;20051;-84
2022/06/11 15:14:45;;;;;;;12.60;2.33;;;;;;;;;;5034264;28;19929;-84
2022/06/11 15:17:35;;;;;;;11.45;2.55;;;;;;;;;;5034670;28;20050;-84
2022/06/11 15:20:36;;;;;;;14.27;3.10;;;;;;;;;;5003115;28;20045;-84
2022/06/11 15:23:40;;;;;;;9.27;3.03;;;;;;;;;;5033755;28;20510;-84
2022/06/11 15:26:15;;;;;;;13.38;2.30;;;;;;;;;;5029516;28;20057;-84
2022/06/11 15:29:04;;;;;;;10.43;2.10;;;;;;;;;;5033869;28;20081;-84
2022/06/11 15:31:44;;;;;;;12.52;2.33;;;;;;;;;;5035701;28;20059;-84
2022/06/11 15:34:20;;;;;;;17.30;2.70;;;;;;;;;;5032453;28;20041;-83
2022/06/11 15:36:57;;;;;;;12.07;2.72;;;;;;;;;;5034992;28;20311;-83
2022/06/11 15:39:27;;;;;;;10.57;2.92;;;;;;;;;;5034198;28;20055;-84
2022/06/11 15:42:00;;;;;;;10.40;3.03;;;;;;;;;;5033297;28;20410;-83
2022/06/11 15:44:41;;;;;;;15.93;3.00;;;;;;;;;;5033251;28;20546;-83
2022/06/11 15:47:18;;;;;;;11.00;2.35;;;;;;;;;;5032931;28;20049;-84
2022/06/11 15:50:05;;;;;;;11.75;2.80;;;;;;;;;;5034277;28;20040;-85
2022/06/11 15:52:43;;;;;;;15.50;2.55;;;;;;;;;;5030299;28;20046;-84
2022/06/11 15:55:42;;;;;;;12.93;2.80;;;;;;;;;;5032511;28;20049;-84
2022/06/11 15:58:18;;;;;;;14.55;2.45;;;;;;;;;;4955339;28;20058;-83
2022/06/11 16:01:09;;;;;;;13.60;2.25;;;;;;;;;;4953383;28;20580;-84
2022/06/11 16:03:48;;;;;;;8.60;2.53;;;;;;;;;;4953497;28;20086;-84
2022/06/11 16:12:30;;;;;;;12.63;2.70;;;;;;;;;;4954610;28;20050;-85
2022/06/11 16:15:00;;;;;;;13.55;3.40;;;;;;;;;;4956142;28;20143;-84
2022/06/11 16:17:33;;;;;;;13.52;4.18;;;;;;;;;;4953459;28;20539;-84
2022/06/11 16:20:20;;;;;;;8.13;2.53;;;;;;;;;;4954433;28;20617;-83
2022/06/11 16:22:50;;;;;;;10.73;2.53;;;;;;;;;;4954768;28;20987;-84
2022/06/11 16:25:50;;;;;;;9.25;2.45;;;;;;;;;;4954281;28;20061;-84
2022/06/11 16:28:26;;;;;;;9.23;2.42;;;;;;;;;;4956128;28;20055;-84
2022/06/11 16:30:54;;;;;;;9.88;2.15;;;;;;;;;;4954872;28;20495;-84
2022/06/11 16:33:51;;;;;;;9.38;2.40;;;;;;;;;;4962206;28;20052;-84
2022/06/11 16:36:38;;;;;;;9.73;2.08;;;;;;;;;;4997103;28;20054;-85